createdAt,value
2018-08-21T00:00:59.763Z,998.26
2018-08-21T00:02:09.581Z,998.35
2018-08-21T00:03:19.416Z,998.28
2018-08-21T00:04:29.495Z,998.29
2018-08-21T00:05:39.608Z,998.26
2018-08-21T00:06:49.437Z,998.23
2018-08-21T00:07:59.005Z,998.25
2018-08-21T00:09:09.085Z,998.22
2018-08-21T00:10:19.175Z,998.23
2018-08-21T00:11:29.262Z,998.28
2018-08-21T00:12:39.349Z,998.24
2018-08-21T00:13:49.498Z,998.26
2018-08-21T00:14:59.593Z,998.28
2018-08-21T00:16:09.673Z,998.29
2018-08-21T00:17:19.501Z,998.31
2018-08-21T00:18:29.586Z,998.3
2018-08-21T00:19:39.712Z,998.27
2018-08-21T00:20:49.783Z,998.36
2018-08-21T00:21:59.890Z,998.32
2018-08-21T00:23:09.966Z,998.34
2018-08-21T00:24:19.774Z,998.4
2018-08-21T00:25:29.865Z,998.42
2018-08-21T00:26:39.696Z,998.39
2018-08-21T00:27:49.793Z,998.43
2018-08-21T00:28:59.869Z,998.36
2018-08-21T00:30:09.938Z,998.39
2018-08-21T00:31:20.071Z,998.42
2018-08-21T00:32:30.171Z,998.43
2018-08-21T00:33:40.246Z,998.39
2018-08-21T00:34:50.062Z,998.42
2018-08-21T00:36:00.142Z,998.42
2018-08-21T00:37:10.261Z,998.44
2018-08-21T00:38:20.353Z,998.46
2018-08-21T00:39:30.424Z,998.5
2018-08-21T00:40:40.549Z,998.48
2018-08-21T00:41:50.643Z,998.49
2018-08-21T00:43:00.512Z,998.53
2018-08-21T00:44:10.349Z,998.53
2018-08-21T00:45:20.163Z,998.6
2018-08-21T00:46:30.231Z,998.6
2018-08-21T00:47:40.336Z,998.63
2018-08-21T00:48:50.420Z,998.61
2018-08-21T00:50:00.502Z,998.61
2018-08-21T00:51:10.573Z,998.59
2018-08-21T00:52:20.664Z,998.59
2018-08-21T00:53:30.745Z,998.63
2018-08-21T00:54:40.625Z,998.61
2018-08-21T00:55:50.688Z,998.6
2018-08-21T00:57:00.873Z,998.59
2018-08-21T00:58:10.957Z,998.6
2018-08-21T00:59:21.045Z,998.61
2018-08-21T01:00:31.127Z,998.6
2018-08-21T01:01:41.191Z,998.67
2018-08-21T01:02:51.286Z,998.68
2018-08-21T01:04:01.372Z,998.67
2018-08-21T01:05:11.451Z,998.69
2018-08-21T01:06:21.327Z,998.7
2018-08-21T01:07:31.424Z,998.69
2018-08-21T01:08:41.501Z,998.71
2018-08-21T01:09:51.582Z,998.7
2018-08-21T01:11:01.696Z,998.72
2018-08-21T01:12:11.773Z,998.7
2018-08-21T01:13:21.854Z,998.68
2018-08-21T01:14:31.944Z,998.72
2018-08-21T01:15:42.029Z,998.74
2018-08-21T01:16:52.112Z,998.68
2018-08-21T01:18:02.217Z,998.69
2018-08-21T01:19:12.054Z,998.69
2018-08-21T01:20:21.616Z,998.7
2018-08-21T01:21:31.717Z,998.71
2018-08-21T01:22:41.798Z,998.73
2018-08-21T01:23:51.884Z,998.69
2018-08-21T01:25:02.017Z,998.76
2018-08-21T01:26:11.823Z,998.71
2018-08-21T01:27:21.909Z,998.75
2018-08-21T01:28:32.000Z,998.74
2018-08-21T01:29:42.189Z,998.74
2018-08-21T01:30:52.261Z,998.74
2018-08-21T01:32:02.332Z,998.75
2018-08-21T01:33:12.433Z,998.8
2018-08-21T01:34:22.518Z,998.8
2018-08-21T01:35:32.376Z,998.8
2018-08-21T01:36:42.481Z,998.82
2018-08-21T01:37:52.557Z,998.86
2018-08-21T01:39:02.644Z,998.85
2018-08-21T01:40:12.727Z,998.89
2018-08-21T01:41:22.837Z,998.93
2018-08-21T01:42:32.654Z,998.96
2018-08-21T01:43:42.787Z,998.93
2018-08-21T01:44:52.867Z,998.99
2018-08-21T01:46:02.692Z,999.04
2018-08-21T01:47:12.773Z,999.05
2018-08-21T01:48:22.871Z,999.08
2018-08-21T01:49:32.951Z,999.09
2018-08-21T01:50:43.042Z,999.06
2018-08-21T01:51:52.882Z,999.09
2018-08-21T01:53:02.699Z,999.1
2018-08-21T01:54:12.790Z,999.13
2018-08-21T01:55:22.885Z,999.11
2018-08-21T01:56:32.980Z,999.1
2018-08-21T01:57:43.060Z,999.12
2018-08-21T01:58:53.233Z,999.12
2018-08-21T02:00:03.333Z,999.11
2018-08-21T02:01:13.153Z,999.17
2018-08-21T02:02:23.251Z,999.15
2018-08-21T02:03:33.315Z,999.2
2018-08-21T02:04:43.406Z,999.18
2018-08-21T02:05:53.503Z,999.18
2018-08-21T02:07:03.333Z,999.24
2018-08-21T02:08:13.426Z,999.26
2018-08-21T02:09:23.502Z,999.3
2018-08-21T02:10:33.619Z,999.27
2018-08-21T02:11:43.433Z,999.29
2018-08-21T02:12:53.521Z,999.26
2018-08-21T02:14:03.603Z,999.31
2018-08-21T02:15:13.455Z,999.32
2018-08-21T02:16:23.539Z,999.34
2018-08-21T02:17:33.618Z,999.36
2018-08-21T02:18:43.463Z,999.33
2018-08-21T02:19:53.514Z,999.41
2018-08-21T02:21:03.484Z,999.36
2018-08-21T02:22:13.623Z,999.41
2018-08-21T02:23:23.706Z,999.43
2018-08-21T02:24:33.794Z,999.39
2018-08-21T02:25:43.888Z,999.43
2018-08-21T02:26:53.986Z,999.43
2018-08-21T02:28:04.078Z,999.4
2018-08-21T02:29:14.141Z,999.49
2018-08-21T02:30:23.965Z,999.46
2018-08-21T02:31:34.047Z,999.46
2018-08-21T02:32:43.861Z,999.51
2018-08-21T02:33:53.954Z,999.55
2018-08-21T02:35:04.035Z,999.46
2018-08-21T02:36:13.848Z,999.56
2018-08-21T02:37:23.929Z,999.52
2018-08-21T02:38:33.768Z,999.49
2018-08-21T02:39:43.848Z,999.52
2018-08-21T02:40:53.942Z,999.51
2018-08-21T02:42:04.021Z,999.52
2018-08-21T02:43:13.850Z,999.52
2018-08-21T02:44:23.676Z,999.52
2018-08-21T02:45:33.748Z,999.53
2018-08-21T02:46:43.844Z,999.53
2018-08-21T02:47:53.672Z,999.55
2018-08-21T02:49:03.742Z,999.48
2018-08-21T02:50:13.817Z,999.54
2018-08-21T02:51:23.662Z,999.55
2018-08-21T02:52:33.746Z,999.51
2018-08-21T02:53:43.836Z,999.56
2018-08-21T02:54:53.910Z,999.56
2018-08-21T02:56:03.750Z,999.57
2018-08-21T02:57:13.870Z,999.56
2018-08-21T02:58:23.960Z,999.56
2018-08-21T02:59:34.043Z,999.57
2018-08-21T03:00:43.855Z,999.61
2018-08-21T03:01:53.670Z,999.56
2018-08-21T03:35:07.675Z,999.82
2018-08-21T03:36:17.753Z,999.83
2018-08-21T03:37:27.834Z,999.85
2018-08-21T03:38:37.902Z,999.87
2018-08-21T03:39:47.730Z,999.89
2018-08-21T03:40:57.628Z,999.9
2018-08-21T03:42:07.732Z,999.9
2018-08-21T03:43:17.815Z,999.92
2018-08-21T03:44:27.884Z,999.95
2018-08-21T03:45:37.953Z,999.96
2018-08-21T03:46:47.820Z,1000
2018-08-21T03:47:57.903Z,999.97
2018-08-21T03:49:07.735Z,999.98
2018-08-21T03:50:17.821Z,999.96
2018-08-21T03:51:27.914Z,1000.03
2018-08-21T03:52:38.064Z,1000.02
2018-08-21T03:53:47.912Z,1000.05
2018-08-21T03:54:57.973Z,1000.09
2018-08-21T03:56:08.058Z,1000.14
2018-08-21T03:57:18.144Z,1000.15
2018-08-21T03:58:27.960Z,1000.11
2018-08-21T03:59:38.020Z,1000.15
2018-08-21T04:00:47.878Z,1000.18
2018-08-21T04:01:57.652Z,1000.15
2018-08-21T04:03:07.730Z,1000.22
2018-08-21T04:04:17.613Z,1000.22
2018-08-21T04:05:27.708Z,1000.23
2018-08-21T04:06:37.801Z,1000.23
2018-08-21T04:07:47.866Z,1000.27
2018-08-21T04:08:57.683Z,1000.24
2018-08-21T04:10:07.998Z,1000.26
2018-08-21T04:11:17.854Z,1000.32
2018-08-21T04:12:27.670Z,1000.33
2018-08-21T04:13:37.763Z,1000.36
2018-08-21T04:14:47.591Z,1000.35
2018-08-21T04:15:57.713Z,1000.39
2018-08-21T04:17:07.528Z,1000.36
2018-08-21T04:18:17.352Z,1000.42
2018-08-21T04:19:27.481Z,1000.38
2018-08-21T04:20:37.576Z,1000.42
2018-08-21T04:21:47.719Z,1000.48
2018-08-21T04:22:57.830Z,1000.49
2018-08-21T04:24:08.275Z,1000.52
2018-08-21T04:25:18.357Z,1000.57
2018-08-21T04:26:28.178Z,1000.56
2018-08-21T04:27:38.263Z,1000.6
2018-08-21T04:28:48.331Z,1000.53
2018-08-21T04:29:58.417Z,1000.55
2018-08-21T04:31:08.485Z,1000.6
2018-08-21T04:32:18.546Z,1000.59
2018-08-21T04:33:28.622Z,1000.58
2018-08-21T04:34:38.429Z,1000.65
2018-08-21T04:35:48.511Z,1000.7
2018-08-21T04:36:58.593Z,1000.71
2018-08-21T04:38:08.707Z,1000.82
2018-08-21T04:39:18.948Z,1000.84
2018-08-21T04:40:28.503Z,1000.86
2018-08-21T04:41:38.581Z,1000.84
2018-08-21T04:42:48.654Z,1000.84
2018-08-21T04:43:58.726Z,1000.9
2018-08-21T04:45:08.332Z,1000.99
2018-08-21T04:46:18.461Z,1000.99
2018-08-21T04:47:29.220Z,1000.99
2018-08-21T04:48:39.054Z,1001.01
2018-08-21T04:49:49.140Z,1000.96
2018-08-21T04:50:59.217Z,1000.99
2018-08-21T04:52:09.040Z,1001.07
2018-08-21T04:53:19.112Z,1001.08
2018-08-21T04:54:29.205Z,1001.03
2018-08-21T04:55:39.035Z,1001.06
2018-08-21T04:56:49.199Z,1001.07
2018-08-21T04:57:59.258Z,1001.06
2018-08-21T04:59:09.430Z,1001.06
2018-08-21T05:00:19.859Z,1001.04
2018-08-21T05:01:29.965Z,1001.05
2018-08-21T05:02:40.115Z,1001.1
2018-08-21T05:03:50.252Z,1001.09
2018-08-21T05:05:00.425Z,1001.12
2018-08-21T05:06:10.556Z,1001.17
2018-08-21T05:07:20.647Z,1001.2
2018-08-21T05:08:30.701Z,1001.23
2018-08-21T05:09:40.798Z,1001.21
2018-08-21T05:10:50.872Z,1001.17
2018-08-21T05:12:00.950Z,1001.22
2018-08-21T05:13:11.032Z,1001.23
2018-08-21T05:14:21.118Z,1001.24
2018-08-21T05:15:31.207Z,1001.29
2018-08-21T05:16:41.297Z,1001.31
2018-08-21T05:17:51.106Z,1001.3
2018-08-21T05:19:01.333Z,1001.3
2018-08-21T05:20:11.402Z,1001.34
2018-08-21T05:21:21.470Z,1001.32
2018-08-21T05:22:31.599Z,1001.38
2018-08-21T05:23:41.678Z,1001.38
2018-08-21T05:24:51.251Z,1001.37
2018-08-21T05:26:01.437Z,1001.37
2018-08-21T05:27:11.525Z,1001.37
2018-08-21T05:28:21.685Z,1001.34
2018-08-21T05:29:31.774Z,1001.28
2018-08-21T05:30:41.863Z,1001.3
2018-08-21T05:31:52.006Z,1001.34
2018-08-21T05:33:02.087Z,1001.35
2018-08-21T05:34:12.161Z,1001.33
2018-08-21T05:35:22.234Z,1001.35
2018-08-21T05:36:32.313Z,1001.37
2018-08-21T05:37:42.450Z,1001.35
2018-08-21T05:38:52.533Z,1001.33
2018-08-21T05:40:02.622Z,1001.35
2018-08-21T05:41:12.711Z,1001.39
2018-08-21T05:42:22.799Z,1001.37
2018-08-21T05:43:32.922Z,1001.36
2018-08-21T05:44:43.636Z,1001.33
2018-08-21T05:45:53.715Z,1001.35
2018-08-21T05:47:03.840Z,1001.29
2018-08-21T05:48:13.937Z,1001.19
2018-08-21T05:49:24.077Z,1001.13
2018-08-21T05:50:34.176Z,1001.12
2018-08-21T05:51:44.266Z,1001.15
2018-08-21T05:52:54.081Z,1001.27
2018-08-21T05:54:04.169Z,1001.23
2018-08-21T05:55:14.315Z,1001.16
2018-08-21T05:56:24.994Z,1001.14
2018-08-21T05:57:35.067Z,1001.14
2018-08-21T05:58:45.148Z,1001.18
2018-08-21T05:59:55.225Z,1001.18
2018-08-21T06:01:05.312Z,1001.21
2018-08-21T06:02:15.389Z,1001.24
2018-08-21T06:03:25.196Z,1001.18
2018-08-21T06:04:35.019Z,1001.19
2018-08-21T06:05:45.100Z,1001.17
2018-08-21T06:06:55.250Z,1001.2
2018-08-21T06:08:04.834Z,1001.31
2018-08-21T06:09:15.006Z,1001.37
2018-08-21T06:10:24.858Z,1001.36
2018-08-21T06:11:34.696Z,1001.3
2018-08-21T06:12:44.838Z,1001.26
2018-08-21T06:13:54.668Z,1001.27
2018-08-21T06:15:04.923Z,1001.26
2018-08-21T06:16:15.006Z,1001.29
2018-08-21T06:17:25.095Z,1001.35
2018-08-21T06:18:35.225Z,1001.37
2018-08-21T06:19:45.349Z,1001.36
2018-08-21T06:20:55.436Z,1001.41
2018-08-21T06:22:05.264Z,1001.4
2018-08-21T06:23:15.330Z,1001.3
2018-08-21T06:24:24.892Z,1001.32
2018-08-21T06:25:34.966Z,1001.36
2018-08-21T06:26:45.096Z,1001.35
2018-08-21T06:27:55.179Z,1001.36
2018-08-21T06:29:05.260Z,1001.34
2018-08-21T06:30:15.074Z,1001.42
2018-08-21T06:31:25.143Z,1001.42
2018-08-21T06:32:34.967Z,1001.44
2018-08-21T06:33:44.802Z,1001.43
2018-08-21T06:34:54.635Z,1001.42
2018-08-21T06:36:04.772Z,1001.39
2018-08-21T06:37:15.178Z,1001.43
2018-08-21T06:38:25.275Z,1001.47
2018-08-21T06:39:35.388Z,1001.44
2018-08-21T06:40:45.841Z,1001.47
2018-08-21T06:41:55.915Z,1001.47
2018-08-21T06:43:06.333Z,1001.5
2018-08-21T06:44:16.163Z,1001.46
2018-08-21T06:45:26.237Z,1001.48
2018-08-21T06:46:36.345Z,1001.49
2018-08-21T06:47:46.806Z,1001.46
2018-08-21T06:48:56.871Z,1001.52
2018-08-21T06:50:06.699Z,1001.49
2018-08-21T06:51:16.787Z,1001.49
2018-08-21T06:52:26.879Z,1001.52
2018-08-21T06:53:36.708Z,1001.58
2018-08-21T06:54:46.782Z,1001.55
2018-08-21T06:55:56.933Z,1001.53
2018-08-21T06:57:07.019Z,1001.53
2018-08-21T06:58:17.101Z,1001.52
2018-08-21T06:59:27.181Z,1001.59
2018-08-21T07:00:37.002Z,1001.57
2018-08-21T07:01:47.086Z,1001.56
2018-08-21T07:02:57.183Z,1001.59
2018-08-21T07:04:06.995Z,1001.54
2018-08-21T07:05:17.102Z,1001.53
2018-08-21T07:06:27.207Z,1001.51
2018-08-21T07:07:37.287Z,1001.58
2018-08-21T07:08:47.122Z,1001.57
2018-08-21T07:09:56.932Z,1001.54
2018-08-21T07:11:07.010Z,1001.54
2018-08-21T07:12:17.088Z,1001.52
2018-08-21T07:13:27.167Z,1001.58
2018-08-21T07:14:36.732Z,1001.56
2018-08-21T07:15:46.836Z,1001.59
2018-08-21T07:16:56.924Z,1001.59
2018-08-21T07:18:06.994Z,1001.62
2018-08-21T07:19:17.088Z,1001.58
2018-08-21T07:20:27.195Z,1001.56
2018-08-21T07:21:37.000Z,1001.58
2018-08-21T07:22:47.088Z,1001.55
2018-08-21T07:23:57.176Z,1001.58
2018-08-21T07:25:07.280Z,1001.57
2018-08-21T07:26:17.114Z,1001.58
2018-08-21T07:27:26.935Z,1001.6
2018-08-21T07:28:36.792Z,1001.58
2018-08-21T07:29:46.912Z,1001.58
2018-08-21T07:30:56.981Z,1001.6
2018-08-21T07:32:07.066Z,1001.58
2018-08-21T07:33:16.939Z,1001.6
2018-08-21T07:34:26.761Z,1001.63
2018-08-21T07:35:36.857Z,1001.6
2018-08-21T07:36:46.965Z,1001.67
2018-08-21T07:37:57.048Z,1001.64
2018-08-21T07:39:07.136Z,1001.67
2018-08-21T07:40:17.206Z,1001.68
2018-08-21T07:41:27.283Z,1001.68
2018-08-21T07:42:37.360Z,1001.72
2018-08-21T07:43:47.187Z,1001.68
2018-08-21T07:44:57.262Z,1001.75
2018-08-21T07:46:07.341Z,1001.7
2018-08-21T07:47:17.539Z,1001.78
2018-08-21T07:48:27.370Z,1001.73
2018-08-21T07:49:37.449Z,1001.78
2018-08-21T07:50:47.317Z,1001.73
2018-08-21T07:51:57.473Z,1001.73
2018-08-21T07:53:07.286Z,1001.7
2018-08-21T07:54:17.116Z,1001.67
2018-08-21T07:55:26.957Z,1001.7
2018-08-21T07:56:36.784Z,1001.71
2018-08-21T07:57:46.719Z,1001.69
2018-08-21T07:58:56.804Z,1001.7
2018-08-21T08:00:06.891Z,1001.7
2018-08-21T08:01:16.969Z,1001.7
2018-08-21T08:02:26.785Z,1001.68
2018-08-21T08:03:36.892Z,1001.66
2018-08-21T08:04:46.968Z,1001.66
2018-08-21T08:05:57.066Z,1001.71
2018-08-21T08:07:07.154Z,1001.69
2018-08-21T08:08:17.306Z,1001.69
2018-08-21T08:09:27.392Z,1001.72
2018-08-21T08:10:37.219Z,1001.69
2018-08-21T08:11:46.788Z,1001.67
2018-08-21T08:12:56.631Z,1001.65
2018-08-21T08:14:06.798Z,1001.67
2018-08-21T08:15:16.939Z,1001.68
2018-08-21T08:16:26.779Z,1001.67
2018-08-21T08:17:36.599Z,1001.66
2018-08-21T08:18:46.443Z,1001.68
2018-08-21T08:19:56.327Z,1001.64
2018-08-21T08:21:06.332Z,1001.67
2018-08-21T08:22:16.418Z,1001.7
2018-08-21T08:23:26.523Z,1001.72
2018-08-21T08:24:36.776Z,1001.71
2018-08-21T08:25:46.598Z,1001.71
2018-08-21T08:26:56.689Z,1001.73
2018-08-21T08:28:06.774Z,1001.73
2018-08-21T08:29:16.614Z,1001.71
2018-08-21T08:30:26.697Z,1001.73
2018-08-21T08:31:36.776Z,1001.79
2018-08-21T08:32:46.611Z,1001.78
2018-08-21T08:33:56.704Z,1001.77
2018-08-21T08:35:06.815Z,1001.67
2018-08-21T08:36:16.915Z,1001.72
2018-08-21T08:37:27.024Z,1001.79
2018-08-21T08:38:36.867Z,1001.7
2018-08-21T08:39:46.951Z,1001.8
2018-08-21T08:40:57.016Z,1001.74
2018-08-21T08:42:07.113Z,1001.73
2018-08-21T08:43:17.197Z,1001.73
2018-08-21T08:44:27.293Z,1001.75
2018-08-21T08:45:37.136Z,1001.75
2018-08-21T08:46:46.428Z,1001.74
2018-08-21T08:47:56.240Z,1001.74
2018-08-21T08:49:06.055Z,1001.68
2018-08-21T08:50:16.224Z,1001.69
2018-08-21T08:51:26.319Z,1001.73
2018-08-21T08:52:35.930Z,1001.69
2018-08-21T08:53:46.016Z,1001.68
2018-08-21T08:54:55.556Z,1001.67
2018-08-21T08:56:05.477Z,1001.7
2018-08-21T08:57:15.328Z,1001.65
2018-08-21T08:58:25.465Z,1001.66
2018-08-21T08:59:35.808Z,1001.69
2018-08-21T09:00:45.908Z,1001.69
2018-08-21T09:01:55.989Z,1001.78
2018-08-21T09:03:06.106Z,1001.74
2018-08-21T09:04:16.201Z,1001.68
2018-08-21T09:05:26.325Z,1001.67
2018-08-21T09:06:36.489Z,1001.65
2018-08-21T09:07:46.564Z,1001.64
2018-08-21T09:08:56.632Z,1001.6
2018-08-21T09:10:06.465Z,1001.61
2018-08-21T09:11:16.552Z,1001.63
2018-08-21T09:12:26.626Z,1001.64
2018-08-21T09:13:36.705Z,1001.62
2018-08-21T09:14:46.776Z,1001.6
2018-08-21T09:15:56.850Z,1001.63
2018-08-21T09:17:06.673Z,1001.61
2018-08-21T09:18:16.748Z,1001.59
2018-08-21T09:19:26.827Z,1001.56
2018-08-21T09:20:36.638Z,1001.57
2018-08-21T09:21:46.457Z,1001.51
2018-08-21T09:22:56.547Z,1001.54
2018-08-21T09:24:06.622Z,1001.49
2018-08-21T09:25:16.191Z,1001.43
2018-08-21T09:26:26.269Z,1001.48
2018-08-21T09:27:36.418Z,1001.5
2018-08-21T09:28:46.778Z,1001.49
2018-08-21T09:29:56.868Z,1001.44
2018-08-21T09:31:06.710Z,1001.4
2018-08-21T09:32:16.794Z,1001.4
2018-08-21T09:33:26.893Z,1001.42
2018-08-21T09:34:36.969Z,1001.4
2018-08-21T09:35:46.812Z,1001.38
2018-08-21T09:36:56.902Z,1001.39
2018-08-21T09:38:06.745Z,1001.4
2018-08-21T09:39:17.235Z,1001.4
2018-08-21T09:40:27.368Z,1001.43
2018-08-21T09:41:37.195Z,1001.43
2018-08-21T09:42:47.296Z,1001.42
2018-08-21T09:43:57.393Z,1001.39
2018-08-21T09:45:07.492Z,1001.39
2018-08-21T09:46:17.377Z,1001.38
2018-08-21T09:47:27.452Z,1001.41
2018-08-21T09:48:37.548Z,1001.46
2018-08-21T09:49:47.622Z,1001.37
2018-08-21T09:50:57.449Z,1001.36
2018-08-21T09:52:07.584Z,1001.32
2018-08-21T09:53:17.671Z,1001.31
2018-08-21T09:54:27.488Z,1001.33
2018-08-21T09:55:37.594Z,1001.27
2018-08-21T09:56:47.701Z,1001.31
2018-08-21T09:57:57.844Z,1001.32
2018-08-21T09:59:07.977Z,1001.29
2018-08-21T10:00:18.075Z,1001.31
2018-08-21T10:01:27.923Z,1001.28
2018-08-21T10:02:38.013Z,1001.21
2018-08-21T10:03:48.082Z,1001.24
2018-08-21T10:04:58.174Z,1001.27
2018-08-21T10:06:08.519Z,1001.2
2018-08-21T10:07:18.603Z,1001.2
2018-08-21T10:08:28.688Z,1001.17
2018-08-21T10:09:38.502Z,1001.17
2018-08-21T10:10:48.587Z,1001.15
2018-08-21T10:11:58.691Z,1001.16
2018-08-21T10:13:08.781Z,1001.17
2018-08-21T10:14:18.618Z,1001.17
2018-08-21T10:15:28.737Z,1001.21
2018-08-21T10:16:38.834Z,1001.19
2018-08-21T10:17:48.926Z,1001.16
2018-08-21T10:18:59.015Z,1001.15
2018-08-21T10:20:09.104Z,1001.13
2018-08-21T10:21:18.988Z,1001.13
2018-08-21T10:22:28.818Z,1001.12
2018-08-21T10:23:38.908Z,1001.12
2018-08-21T10:24:48.998Z,1001.1
2018-08-21T10:25:59.094Z,1001.07
2018-08-21T10:27:08.666Z,1001.07
2018-08-21T10:28:18.759Z,1001.02
2018-08-21T10:29:28.863Z,1001.07
2018-08-21T10:30:38.700Z,1001.05
2018-08-21T10:31:48.794Z,1001.05
2018-08-21T10:32:58.965Z,1000.98
2018-08-21T10:34:09.101Z,1001.03
2018-08-21T10:35:18.910Z,1001.06
2018-08-21T10:36:29.000Z,1001.01
2018-08-21T10:37:38.845Z,1001.01
2018-08-21T10:38:48.945Z,1000.97
2018-08-21T10:39:59.039Z,1001.03
2018-08-21T10:41:08.878Z,1001
2018-08-21T10:42:18.714Z,1001.03
2018-08-21T10:43:28.800Z,1001.01
2018-08-21T10:44:38.881Z,1000.99
2018-08-21T10:45:49.013Z,1001
2018-08-21T10:46:58.568Z,1000.96
2018-08-21T10:48:08.649Z,1001.07
2018-08-21T10:49:18.475Z,1001.03
2018-08-21T10:50:28.322Z,1000.97
2018-08-21T10:51:38.459Z,1001.05
2018-08-21T10:52:48.890Z,1000.98
2018-08-21T10:53:58.725Z,1000.96
2018-08-21T10:55:08.831Z,1000.91
2018-08-21T10:56:18.922Z,1000.92
2018-08-21T10:57:29.030Z,1000.93
2018-08-21T10:58:39.120Z,1000.88
2018-08-21T10:59:49.217Z,1000.89
2018-08-21T11:00:59.315Z,1000.87
2018-08-21T11:02:09.178Z,1000.84
2018-08-21T11:03:19.569Z,1000.9
2018-08-21T11:04:29.139Z,1000.84
2018-08-21T11:05:39.231Z,1000.83
2018-08-21T11:06:49.074Z,1000.81
2018-08-21T11:07:59.171Z,1000.76
2018-08-21T11:09:09.012Z,1000.8
2018-08-21T11:10:19.150Z,1000.78
2018-08-21T11:11:28.988Z,1000.78
2018-08-21T11:12:39.088Z,1000.75
2018-08-21T11:13:49.211Z,1000.81
2018-08-21T11:14:59.310Z,1000.78
2018-08-21T11:16:09.407Z,1000.75
2018-08-21T11:17:19.506Z,1000.73
2018-08-21T11:18:29.607Z,1000.67
2018-08-21T11:19:39.499Z,1000.68
2018-08-21T11:20:49.307Z,1000.62
2018-08-21T11:21:58.670Z,1000.65
2018-08-21T11:23:08.777Z,1000.63
2018-08-21T11:24:18.881Z,1000.63
2018-08-21T11:25:28.964Z,1000.65
2018-08-21T11:26:39.056Z,1000.65
2018-08-21T11:27:49.127Z,1000.61
2018-08-21T11:28:59.215Z,1000.65
2018-08-21T11:30:09.036Z,1000.65
2018-08-21T11:31:19.130Z,1000.58
2018-08-21T11:32:29.222Z,1000.59
2018-08-21T11:33:38.802Z,1000.59
2018-08-21T11:34:48.641Z,1000.64
2018-08-21T11:35:58.470Z,1000.63
2018-08-21T11:37:08.566Z,1000.6
2018-08-21T11:38:18.680Z,1000.58
2018-08-21T11:39:28.849Z,1000.59
2018-08-21T11:40:38.966Z,1000.58
2018-08-21T11:41:48.819Z,1000.57
2018-08-21T11:42:58.938Z,1000.55
2018-08-21T11:44:08.764Z,1000.51
2018-08-21T11:45:18.603Z,1000.49
2018-08-21T11:46:28.704Z,1000.48
2018-08-21T11:47:38.834Z,1000.4
2018-08-21T11:48:48.992Z,1000.45
2018-08-21T11:49:59.103Z,1000.49
2018-08-21T11:51:09.197Z,1000.5
2018-08-21T11:52:19.033Z,1000.46
2018-08-21T11:53:29.116Z,1000.44
2018-08-21T11:54:39.231Z,1000.37
2018-08-21T11:55:49.354Z,1000.46
2018-08-21T11:56:59.518Z,1000.41
2018-08-21T11:58:09.937Z,1000.43
2018-08-21T11:59:20.059Z,1000.36
2018-08-21T12:00:30.192Z,1000.43
2018-08-21T12:01:40.019Z,1000.42
2018-08-21T12:02:49.851Z,1000.41
2018-08-21T12:03:59.967Z,1000.38
2018-08-21T12:05:10.061Z,1000.34
2018-08-21T12:06:20.214Z,1000.34
2018-08-21T12:07:30.325Z,1000.33
2018-08-21T12:08:40.407Z,1000.3
2018-08-21T12:09:50.608Z,1000.31
2018-08-21T12:11:00.922Z,1000.27
2018-08-21T12:12:10.753Z,1000.19
2018-08-21T12:13:20.870Z,1000.21
2018-08-21T12:14:30.965Z,1000.21
2018-08-21T12:15:41.278Z,1000.16
2018-08-21T12:16:51.368Z,1000.19
2018-08-21T12:18:01.262Z,1000.15
2018-08-21T12:19:11.361Z,1000.17
2018-08-21T12:20:21.471Z,1000.12
2018-08-21T12:21:31.306Z,1000.16
2018-08-21T12:22:41.133Z,1000.14
2018-08-21T12:23:51.047Z,1000.17
2018-08-21T12:25:01.404Z,1000.1
2018-08-21T12:26:11.507Z,1000.11
2018-08-21T12:27:21.600Z,1000.11
2018-08-21T12:28:31.703Z,1000.07
2018-08-21T12:29:41.540Z,1000.04
2018-08-21T12:30:51.875Z,1000.07
2018-08-21T12:32:01.442Z,1000
2018-08-21T12:33:11.567Z,1000.01
2018-08-21T12:34:21.672Z,999.97
2018-08-21T12:35:31.752Z,999.98
2018-08-21T12:36:41.626Z,999.93
2018-08-21T12:37:51.467Z,999.88
2018-08-21T12:39:01.027Z,999.9
2018-08-21T12:40:11.115Z,999.85
2018-08-21T12:41:20.962Z,999.83
2018-08-21T12:42:31.075Z,999.77
2018-08-21T12:43:41.209Z,999.79
2018-08-21T12:44:51.323Z,999.83
2018-08-21T12:46:01.427Z,999.75
2018-08-21T12:47:11.251Z,999.71
2018-08-21T12:48:21.333Z,999.72
2018-08-21T12:49:31.177Z,999.71
2018-08-21T12:50:41.269Z,999.72
2018-08-21T12:51:51.421Z,999.69
2018-08-21T12:53:01.509Z,999.62
2018-08-21T12:54:11.332Z,999.7
2018-08-21T12:55:21.408Z,999.65
2018-08-21T12:56:31.492Z,999.71
2018-08-21T12:57:41.612Z,999.67
2018-08-21T12:58:51.705Z,999.61
2018-08-21T13:00:01.896Z,999.73
2018-08-21T13:01:11.746Z,999.66
2018-08-21T13:02:21.834Z,999.66
2018-08-21T13:03:31.925Z,999.67
2018-08-21T13:04:42.004Z,999.66
2018-08-21T13:05:52.151Z,999.65
2018-08-21T13:07:02.247Z,999.63
2018-08-21T13:08:12.350Z,999.59
2018-08-21T13:09:22.447Z,999.56
2018-08-21T13:10:32.321Z,999.58
2018-08-21T13:11:42.528Z,999.53
2018-08-21T13:12:52.618Z,999.48
2018-08-21T13:14:02.762Z,999.53
2018-08-21T13:15:12.877Z,999.5
2018-08-21T13:16:22.694Z,999.52
2018-08-21T13:17:32.782Z,999.53
2018-08-21T13:18:43.136Z,999.51
2018-08-21T13:19:52.952Z,999.49
2018-08-21T13:21:03.031Z,999.47
2018-08-21T13:22:12.862Z,999.47
2018-08-21T13:23:23.012Z,999.44
2018-08-21T13:24:33.096Z,999.48
2018-08-21T13:25:43.391Z,999.47
2018-08-21T13:26:53.493Z,999.42
2018-08-21T13:28:03.327Z,999.46
2018-08-21T13:29:13.448Z,999.4
2018-08-21T13:30:23.962Z,999.41
2018-08-21T13:31:34.046Z,999.4
2018-08-21T13:32:44.157Z,999.41
2018-08-21T13:33:53.996Z,999.41
2018-08-21T13:35:04.134Z,999.4
2018-08-21T13:36:14.298Z,999.43
2018-08-21T13:37:24.835Z,999.43
2018-08-21T13:38:34.926Z,999.44
2018-08-21T13:39:45.011Z,999.38
2018-08-21T13:40:55.150Z,999.43
2018-08-21T13:42:05.257Z,999.38
2018-08-21T13:43:15.355Z,999.39
2018-08-21T13:44:25.003Z,999.42
2018-08-21T13:45:35.181Z,999.39
2018-08-21T13:46:45.084Z,999.43
2018-08-21T13:47:54.937Z,999.37
2018-08-21T13:49:05.076Z,999.35
2018-08-21T13:50:15.170Z,999.34
2018-08-21T13:51:25.266Z,999.35
2018-08-21T13:52:36.413Z,999.35
2018-08-21T13:53:46.549Z,999.32
2018-08-21T13:54:56.645Z,999.27
2018-08-21T13:56:06.759Z,999.24
2018-08-21T13:57:16.847Z,999.22
2018-08-21T13:58:27.018Z,999.23
2018-08-21T13:59:37.429Z,999.24
2018-08-21T14:00:47.537Z,999.28
2018-08-21T14:01:57.636Z,999.28
2018-08-21T14:03:07.681Z,999.25
2018-08-21T14:04:17.833Z,999.23
2018-08-21T14:05:27.944Z,999.23
2018-08-21T14:06:38.047Z,999.22
2018-08-21T14:07:48.320Z,999.18
2018-08-21T14:08:58.162Z,999.2
2018-08-21T14:10:08.068Z,999.24
2018-08-21T14:11:18.159Z,999.22
2018-08-21T14:12:28.294Z,999.2
2018-08-21T14:13:38.349Z,999.23
2018-08-21T14:14:48.207Z,999.17
2018-08-21T14:15:58.355Z,999.19
2018-08-21T14:17:08.183Z,999.15
2018-08-21T14:18:18.277Z,999.12
2018-08-21T14:19:28.112Z,999.15
2018-08-21T14:20:38.213Z,999.1
2018-08-21T14:21:48.401Z,999.11
2018-08-21T14:22:58.676Z,999.08
2018-08-21T14:24:08.785Z,999.13
2018-08-21T14:25:18.891Z,999.14
2018-08-21T14:26:28.746Z,999.1
2018-08-21T14:27:38.881Z,999.13
2018-08-21T14:28:48.501Z,999.13
2018-08-21T14:29:58.062Z,999.04
2018-08-21T14:31:08.185Z,999.05
2018-08-21T14:32:18.029Z,999.05
2018-08-21T14:33:27.929Z,999.02
2018-08-21T14:34:38.029Z,999.01
2018-08-21T14:35:48.110Z,999.04
2018-08-21T14:36:58.186Z,999.08
2018-08-21T14:38:08.277Z,998.99
2018-08-21T14:39:18.108Z,998.99
2018-08-21T14:40:27.947Z,998.99
2018-08-21T14:41:37.778Z,999.02
2018-08-21T14:42:48.157Z,998.98
2018-08-21T14:43:58.406Z,998.99
2018-08-21T14:45:08.522Z,999.02
2018-08-21T14:46:19.114Z,998.97
2018-08-21T14:47:30.564Z,998.95
2018-08-21T14:48:40.656Z,998.93
2018-08-21T14:49:50.775Z,998.9
2018-08-21T14:51:00.940Z,999
2018-08-21T14:52:11.147Z,998.99
2018-08-21T14:53:21.265Z,998.95